createdAt,value
2017-11-23T00:04:02.285Z,79.00
2017-11-23T00:09:04.836Z,79.20
2017-11-23T00:14:07.394Z,79.20
2017-11-23T00:19:09.930Z,79.20
2017-11-23T00:24:12.493Z,79.20
2017-11-23T00:29:15.829Z,79.40
2017-11-23T00:34:18.389Z,79.30
2017-11-23T00:39:20.936Z,79.10
2017-11-23T00:44:23.569Z,79.20
2017-11-23T00:49:26.165Z,79.30
2017-11-23T00:54:28.818Z,79.30
2017-11-23T00:59:31.401Z,79.50
2017-11-23T01:04:34.076Z,79.40
2017-11-23T01:09:36.696Z,79.70
2017-11-23T01:14:39.371Z,79.60
2017-11-23T01:19:41.930Z,79.70
2017-11-23T01:24:44.470Z,79.80
2017-11-23T01:29:47.783Z,79.90
2017-11-23T01:34:50.320Z,79.90
2017-11-23T01:39:52.868Z,80.20
2017-11-23T01:44:55.426Z,80.40
2017-11-23T01:49:58.000Z,80.00
2017-11-23T01:55:00.568Z,80.20
2017-11-23T02:00:03.170Z,80.30
2017-11-23T02:05:05.744Z,80.20
2017-11-23T02:10:09.096Z,79.90
2017-11-23T02:15:11.672Z,80.60
2017-11-23T02:20:14.226Z,80.20
2017-11-23T02:25:16.802Z,80.20
2017-11-23T02:30:19.385Z,80.20
2017-11-23T02:35:21.944Z,80.50
2017-11-23T02:40:24.527Z,80.40
2017-11-23T02:45:27.075Z,80.40
2017-11-23T02:50:29.633Z,80.50
2017-11-23T02:55:32.206Z,80.30
2017-11-23T03:00:34.857Z,80.60
2017-11-23T03:05:38.205Z,80.20
2017-11-23T03:10:41.584Z,80.20
2017-11-23T03:15:44.931Z,80.10
2017-11-23T03:20:47.478Z,80.00
2017-11-23T03:25:50.044Z,80.00
2017-11-23T03:30:52.650Z,79.80
2017-11-23T03:35:55.200Z,80.20
2017-11-23T03:40:57.759Z,80.10
2017-11-23T03:46:00.308Z,80.20
2017-11-23T03:51:02.853Z,80.20
2017-11-23T03:56:05.426Z,80.40
2017-11-23T04:01:08.746Z,80.90
2017-11-23T04:06:11.310Z,80.80
2017-11-23T04:11:13.884Z,80.80
2017-11-23T04:16:16.459Z,81.60
2017-11-23T04:21:19.019Z,81.10
2017-11-23T04:26:21.571Z,81.10
2017-11-23T04:31:24.153Z,81.10
2017-11-23T04:36:26.697Z,81.40
2017-11-23T04:41:29.317Z,81.50
2017-11-23T04:46:31.859Z,81.80
2017-11-23T04:51:34.416Z,81.90
2017-11-23T04:56:36.956Z,81.60
2017-11-23T05:01:39.498Z,82.30
2017-11-23T05:06:42.036Z,81.50
2017-11-23T05:11:44.606Z,81.70
2017-11-23T05:16:47.164Z,81.40
2017-11-23T05:21:49.752Z,81.60
2017-11-23T05:26:52.292Z,81.50
2017-11-23T05:31:54.883Z,81.30
2017-11-23T05:36:58.211Z,81.30
2017-11-23T05:42:00.768Z,81.30
2017-11-23T05:47:03.409Z,80.90
2017-11-23T05:52:05.974Z,81.20
2017-11-23T05:57:08.557Z,80.70
2017-11-23T06:02:11.106Z,80.70
2017-11-23T06:07:13.668Z,80.90
2017-11-23T06:12:16.233Z,80.80
2017-11-23T06:17:18.796Z,80.50
2017-11-23T06:22:21.409Z,80.50
2017-11-23T06:27:23.997Z,80.40
2017-11-23T06:32:26.585Z,80.60
2017-11-23T06:37:29.207Z,80.90
2017-11-23T06:42:31.760Z,80.60
2017-11-23T06:47:34.321Z,80.60
2017-11-23T06:52:37.109Z,80.70
2017-11-23T06:57:39.694Z,80.50
2017-11-23T07:02:42.258Z,80.30
2017-11-23T07:07:44.837Z,80.40
2017-11-23T07:12:47.402Z,80.20
2017-11-23T07:17:55.630Z,80.60
2017-11-23T07:22:58.208Z,80.70
2017-11-23T07:28:00.789Z,81.20
2017-11-23T07:33:03.380Z,81.30
2017-11-23T07:38:05.977Z,81.10
2017-11-23T07:43:08.551Z,81.30
2017-11-23T07:48:11.108Z,81.20
2017-11-23T07:53:13.677Z,81.30
2017-11-23T07:58:16.238Z,81.20
2017-11-23T08:03:18.816Z,81.20
2017-11-23T08:08:21.384Z,81.20
2017-11-23T08:13:23.962Z,82.10
2017-11-23T08:18:26.526Z,82.90
2017-11-23T08:23:29.126Z,84.00
2017-11-23T08:28:31.702Z,84.00
2017-11-23T08:33:34.273Z,84.00
2017-11-23T08:38:36.842Z,83.80
2017-11-23T08:43:39.396Z,83.20
2017-11-23T08:48:41.961Z,82.60
2017-11-23T08:53:44.531Z,82.20
2017-11-23T08:58:47.841Z,82.00
2017-11-23T09:03:50.424Z,81.90
2017-11-23T09:08:52.985Z,82.40
2017-11-23T09:13:55.533Z,81.50
2017-11-23T09:18:58.110Z,82.00
2017-11-23T09:24:00.697Z,80.70
2017-11-23T09:29:04.046Z,80.40
2017-11-23T09:34:06.605Z,79.80
2017-11-23T09:39:09.909Z,80.30
2017-11-23T09:44:12.583Z,80.40
2017-11-23T09:49:15.131Z,80.40
2017-11-23T09:54:17.697Z,79.60
2017-11-23T09:59:20.254Z,79.90
2017-11-23T10:04:22.827Z,79.00
2017-11-23T10:09:25.386Z,78.60
2017-11-23T10:14:33.782Z,77.70
2017-11-23T10:19:36.340Z,78.30
2017-11-23T10:24:38.885Z,76.90
2017-11-23T10:29:41.444Z,76.60
2017-11-23T10:34:44.748Z,78.90
2017-11-23T10:39:47.313Z,78.90
2017-11-23T10:44:49.847Z,76.80
2017-11-23T10:49:52.412Z,75.20
2017-11-23T10:54:55.018Z,74.90
2017-11-23T10:59:57.585Z,74.80
2017-11-23T11:05:00.931Z,76.90
2017-11-23T11:10:03.486Z,76.90
2017-11-23T11:15:06.022Z,76.50
2017-11-23T11:20:08.631Z,75.40
2017-11-23T11:25:11.187Z,75.90
2017-11-23T11:30:13.756Z,75.40
2017-11-23T11:35:16.332Z,75.70
2017-11-23T11:40:18.899Z,75.60
2017-11-23T11:45:21.438Z,75.50
2017-11-23T11:50:24.019Z,75.10
2017-11-23T11:55:26.573Z,75.40
2017-11-23T12:00:29.147Z,75.20
2017-11-23T12:05:31.722Z,75.60
2017-11-23T12:10:34.307Z,75.20
2017-11-23T12:15:36.875Z,74.90
2017-11-23T12:20:51.379Z,74.30
2017-11-23T12:25:58.447Z,74.50
2017-11-23T12:31:01.003Z,73.60
2017-11-23T12:36:03.541Z,73.00
2017-11-23T12:41:06.089Z,75.80
2017-11-23T12:56:27.424Z,73.50
2017-11-23T13:01:32.259Z,73.20
2017-11-23T13:06:37.195Z,74.90
2017-11-23T13:11:41.765Z,73.10
2017-11-23T13:16:44.802Z,74.20
2017-11-23T13:21:47.698Z,74.30
2017-11-23T13:26:52.416Z,73.70
2017-11-23T13:31:55.454Z,73.40
2017-11-23T13:36:58.530Z,73.80
2017-11-23T13:42:02.182Z,74.00
2017-11-23T13:52:16.707Z,74.10
2017-11-23T13:57:23.556Z,74.20
2017-11-23T14:02:27.515Z,74.00
2017-11-23T14:07:30.919Z,74.30
2017-11-23T14:12:33.926Z,73.70
2017-11-23T14:17:36.938Z,74.50
2017-11-23T14:27:47.000Z,73.90
2017-11-23T14:32:50.852Z,73.90
2017-11-23T14:37:53.887Z,74.60
2017-11-23T14:42:57.444Z,74.50
2017-11-23T14:48:03.634Z,75.50
2017-11-23T14:53:06.708Z,74.60
2017-11-23T14:58:09.657Z,74.80
2017-11-23T15:03:16.507Z,74.00
2017-11-23T15:08:22.972Z,74.30
2017-11-23T15:13:26.010Z,74.40
2017-11-23T15:18:30.574Z,74.50
2017-11-23T15:23:36.645Z,75.00
2017-11-23T15:28:39.470Z,74.90
2017-11-23T15:33:43.014Z,74.80
2017-11-23T15:38:47.381Z,75.40
2017-11-23T15:43:51.990Z,75.20
2017-11-23T15:48:55.021Z,75.20
2017-11-23T15:54:01.654Z,75.70
2017-11-23T15:59:06.322Z,76.00
2017-11-23T16:35:08.406Z,76.10
2017-11-23T16:40:17.338Z,76.10
2017-11-23T16:45:22.152Z,76.20
2017-11-23T16:50:30.430Z,76.10
2017-11-23T16:55:38.678Z,76.20
2017-11-23T17:00:46.838Z,76.20
2017-11-23T17:05:54.995Z,76.40
2017-11-23T17:11:18.081Z,76.60
2017-11-23T17:16:20.628Z,76.60
2017-11-23T17:21:23.228Z,76.50
2017-11-23T17:26:25.785Z,76.70
2017-11-23T17:31:28.369Z,76.70
2017-11-23T17:36:31.969Z,77.00
2017-11-23T17:41:34.529Z,77.00
2017-11-23T17:46:37.116Z,77.70
2017-11-23T17:51:39.705Z,77.20
2017-11-23T17:56:42.295Z,77.30
2017-11-23T18:01:44.925Z,77.20
2017-11-23T18:06:47.624Z,77.50
2017-11-23T18:11:50.234Z,77.50
2017-11-23T18:16:53.431Z,77.60
2017-11-23T18:21:56.005Z,77.60
2017-11-23T18:26:58.579Z,77.60
2017-11-23T18:32:01.156Z,77.70
2017-11-23T18:37:03.758Z,77.70
2017-11-23T18:42:06.371Z,77.90
2017-11-23T18:47:08.920Z,77.90
2017-11-23T18:52:11.492Z,78.00
2017-11-23T18:57:14.080Z,78.00
2017-11-23T19:02:16.624Z,77.80
2017-11-23T19:07:19.959Z,78.10
2017-11-23T19:12:22.517Z,78.00
2017-11-23T19:17:25.097Z,78.10
2017-11-23T19:22:27.638Z,78.00
2017-11-23T19:27:30.221Z,78.00
2017-11-23T19:32:32.792Z,78.00
2017-11-23T19:37:35.346Z,77.90
2017-11-23T19:42:37.901Z,77.90
2017-11-23T19:47:40.465Z,77.90
2017-11-23T19:52:43.014Z,77.90
2017-11-23T19:57:45.578Z,77.80
2017-11-23T20:02:48.143Z,77.90
2017-11-23T20:07:50.709Z,78.00
2017-11-23T20:12:53.324Z,78.10
2017-11-23T20:17:56.670Z,78.20
2017-11-23T20:22:59.239Z,78.20
2017-11-23T20:28:01.849Z,78.10
2017-11-23T20:33:04.403Z,78.20
2017-11-23T20:38:07.085Z,78.40
2017-11-23T20:43:10.006Z,78.20
2017-11-23T20:48:12.696Z,78.30
2017-11-23T20:53:15.263Z,79.00
2017-11-23T20:58:17.838Z,78.30
2017-11-23T21:03:20.392Z,78.40
2017-11-23T21:08:22.974Z,78.30
2017-11-23T21:13:25.591Z,78.30
2017-11-23T21:18:28.357Z,78.40
2017-11-23T21:23:31.712Z,78.30
2017-11-23T21:28:34.276Z,78.30
2017-11-23T21:33:36.831Z,78.20
2017-11-23T21:38:39.397Z,78.30
2017-11-23T21:43:41.952Z,78.30
2017-11-23T21:48:44.519Z,78.30
2017-11-23T21:53:47.066Z,78.40
2017-11-23T21:58:49.633Z,78.30
2017-11-23T22:03:52.202Z,78.40
2017-11-23T22:08:54.769Z,78.40
2017-11-23T22:13:57.348Z,78.40
2017-11-23T22:18:59.900Z,78.30
2017-11-23T22:24:02.453Z,78.30
2017-11-23T22:29:05.010Z,78.40
2017-11-23T22:34:07.552Z,78.20
2017-11-23T22:39:10.152Z,78.10
2017-11-23T22:44:12.719Z,78.10
2017-11-23T22:49:15.290Z,78.30
2017-11-23T22:54:18.608Z,78.20
2017-11-23T22:59:21.162Z,78.10
2017-11-23T23:04:23.723Z,78.20
2017-11-23T23:09:26.278Z,78.10
2017-11-23T23:14:28.848Z,78.10
2017-11-23T23:19:31.432Z,78.10
2017-11-23T23:24:34.003Z,78.20
2017-11-23T23:29:37.335Z,78.20
2017-11-23T23:34:39.998Z,78.10
2017-11-23T23:39:42.578Z,78.70
2017-11-23T23:44:45.153Z,78.20
2017-11-23T23:49:47.706Z,78.20
2017-11-23T23:54:50.273Z,78.20
2017-11-23T23:59:52.816Z,78.20
